Terminal Aerodrome Forecast
Issued by NWS

Current Version | Previous Version | Text Only | Print | Product List | Glossary On
Versions: 1 2 3 4 5 6 7 8 9 10 11 12 13 14 15 16 17 18 19 20 21 22 23 24 25 26 27 28
542
FTUS43 KDLH 291126
TAFBRD
TAF
KBRD 291126Z 2912/3012 VRB04KT P6SM SCT060
     FM291400 16008KT P6SM SCT050
     FM300000 15008KT P6SM SKC
      TEMPO 3008/3012 4SM BR=

USA.gov is the U.S. government's official web portal to all federal, state and local government web resources and services.